Pagrindinis puslapis
METAR-TAF:

METAR-TAF

Oro uostai :

Jorge Newbery oro uostas

Buenos Airės, Argentina

platuma: 34-34S, ilguma: 058-25W, Aukštis: 6 m

Dabartinis oras

Ataskaita buvo paskelbta 1 valandą ir 54 minutes, ne 12:00 UTC
Vėjas 4 kt iš Pietvakarių, svyruoja nuo Pietų/Pietryčių ir Vakarų
Temperatūra 8°C
Drėgmė 81%
Slėgis 1024 hPa
Matomumas 10 km arba daugiau
nėra debesų žemiau 1500 m ir nėra kamuolinių lietaus debesų

METAR: SABE 011200Z 22004KT 160V260 CAVOK 08/05 Q1024 NOSIG

Laikas: 10:54 (13:54 UTC)

Prognozė

Ataskaita buvo paskelbta 2 valandos ir 54 minutes, ne 11:00 UTC
Prognozė galioja nuo 01 metu 12 UTC su 02 metu 12 UTC
Vėjas 5 kt iš Pietvakarių
Matomumas 10 km arba daugiau
Išsisklaidę debesys ne aukštis 3000 ft
Tapsmas
nuo 02 metu 02 UTC su 02 metu 04 UTC
Vėjas 3 kt nuo kintamojo kryptimis
Matomumas 10 km arba daugiau
nėra debesų žemiau 1500 m ir nėra kamuolinių lietaus debesų

TAF: SABE 011100Z 0112/0212 22005KT 9999 SCT030 TX14/0118Z TN05/0211Z BECMG 0202/0204 VRB03KT CAVOK

Orai ataskaitas ir orų prognozės (METAR, TAF).

turimą stotys yra geltonos ir raudonos taškus žemėlapyje.

Perkelti pele per norėdami pamatyti stoties vardą.

Tada spustelėkite, norėdami matyti oro stebėjimo ir prognozės.

Norėdami pakeisti žemėlapį: spustelėkite ant žalios mygtukų su juodo kryžiaus žemyn,; žalią mygtuką su brūkšneliu, jei norite nutolinti; arba žalių rodyklių gretimoms žemėlapius.


METAR-TAF: